sensor_id;sensor_type;location;lat;lon;timestamp;P1;durP1;ratioP1;P2;durP2;ratioP2
28762;SDS011;15918;51.270;6.522;2024-02-16T00:00:26;4.97;;;2.60;;
28762;SDS011;15918;51.270;6.522;2024-02-16T00:02:52;4.93;;;2.47;;
28762;SDS011;15918;51.270;6.522;2024-02-16T00:05:18;5.30;;;3.03;;
28762;SDS011;15918;51.270;6.522;2024-02-16T00:07:44;7.90;;;2.58;;
28762;SDS011;15918;51.270;6.522;2024-02-16T00:10:10;5.53;;;3.05;;
28762;SDS011;15918;51.270;6.522;2024-02-16T00:12:37;4.70;;;2.38;;
28762;SDS011;15918;51.270;6.522;2024-02-16T00:15:03;5.00;;;2.67;;
28762;SDS011;15918;51.270;6.522;2024-02-16T00:17:29;3.83;;;2.60;;
28762;SDS011;15918;51.270;6.522;2024-02-16T00:19:58;5.50;;;3.08;;
28762;SDS011;15918;51.270;6.522;2024-02-16T00:22:23;5.95;;;2.75;;
28762;SDS011;15918;51.270;6.522;2024-02-16T00:24:49;4.65;;;2.90;;
28762;SDS011;15918;51.270;6.522;2024-02-16T00:27:15;7.47;;;3.10;;
28762;SDS011;15918;51.270;6.522;2024-02-16T00:29:41;6.45;;;3.08;;
28762;SDS011;15918;51.270;6.522;2024-02-16T00:32:07;5.35;;;2.88;;
28762;SDS011;15918;51.270;6.522;2024-02-16T00:34:34;3.67;;;2.58;;
28762;SDS011;15918;51.270;6.522;2024-02-16T00:37:01;4.20;;;2.72;;
28762;SDS011;15918;51.270;6.522;2024-02-16T00:39:26;5.07;;;2.92;;
28762;SDS011;15918;51.270;6.522;2024-02-16T00:41:53;4.57;;;2.65;;
28762;SDS011;15918;51.270;6.522;2024-02-16T00:44:18;4.45;;;2.80;;
28762;SDS011;15918;51.270;6.522;2024-02-16T00:46:44;5.32;;;3.10;;
28762;SDS011;15918;51.270;6.522;2024-02-16T00:49:10;6.47;;;2.92;;
28762;SDS011;15918;51.270;6.522;2024-02-16T00:51:36;3.97;;;2.80;;
28762;SDS011;15918;51.270;6.522;2024-02-16T00:54:02;5.13;;;2.97;;
28762;SDS011;15918;51.270;6.522;2024-02-16T00:56:28;4.75;;;2.88;;
28762;SDS011;15918;51.270;6.522;2024-02-16T00:58:54;7.00;;;3.17;;
28762;SDS011;15918;51.270;6.522;2024-02-16T01:01:20;5.53;;;2.92;;
28762;SDS011;15918;51.270;6.522;2024-02-16T01:03:47;5.82;;;3.25;;
28762;SDS011;15918;51.270;6.522;2024-02-16T01:06:13;4.55;;;2.70;;
28762;SDS011;15918;51.270;6.522;2024-02-16T01:08:39;3.80;;;2.78;;
28762;SDS011;15918;51.270;6.522;2024-02-16T01:11:05;4.65;;;2.85;;
28762;SDS011;15918;51.270;6.522;2024-02-16T01:13:30;6.45;;;2.90;;
28762;SDS011;15918;51.270;6.522;2024-02-16T01:15:57;4.15;;;2.75;;
28762;SDS011;15918;51.270;6.522;2024-02-16T01:18:23;3.47;;;2.55;;
28762;SDS011;15918;51.270;6.522;2024-02-16T01:20:49;4.95;;;2.85;;
28762;SDS011;15918;51.270;6.522;2024-02-16T01:23:15;5.18;;;2.65;;
28762;SDS011;15918;51.270;6.522;2024-02-16T01:25:40;4.78;;;3.00;;
28762;SDS011;15918;51.270;6.522;2024-02-16T01:28:06;4.93;;;3.53;;
28762;SDS011;15918;51.270;6.522;2024-02-16T01:30:31;5.18;;;3.40;;
28762;SDS011;15918;51.270;6.522;2024-02-16T01:32:57;5.47;;;2.70;;
28762;SDS011;15918;51.270;6.522;2024-02-16T01:35:22;3.90;;;2.90;;
28762;SDS011;15918;51.270;6.522;2024-02-16T01:37:48;5.13;;;2.95;;
28762;SDS011;15918;51.270;6.522;2024-02-16T01:40:13;5.93;;;3.10;;
28762;SDS011;15918;51.270;6.522;2024-02-16T01:42:42;4.50;;;2.72;;
28762;SDS011;15918;51.270;6.522;2024-02-16T01:45:11;4.82;;;2.95;;
28762;SDS011;15918;51.270;6.522;2024-02-16T01:47:38;6.60;;;2.97;;
28762;SDS011;15918;51.270;6.522;2024-02-16T01:50:04;4.38;;;2.92;;
28762;SDS011;15918;51.270;6.522;2024-02-16T01:52:30;4.93;;;3.08;;
28762;SDS011;15918;51.270;6.522;2024-02-16T01:54:59;5.72;;;3.20;;
28762;SDS011;15918;51.270;6.522;2024-02-16T01:57:26;4.15;;;2.85;;
28762;SDS011;15918;51.270;6.522;2024-02-16T01:59:51;5.30;;;3.28;;
28762;SDS011;15918;51.270;6.522;2024-02-16T02:02:18;6.53;;;2.90;;
28762;SDS011;15918;51.270;6.522;2024-02-16T02:04:44;4.68;;;3.03;;
28762;SDS011;15918;51.270;6.522;2024-02-16T02:07:13;5.40;;;2.97;;
28762;SDS011;15918;51.270;6.522;2024-02-16T02:09:40;3.83;;;2.83;;
28762;SDS011;15918;51.270;6.522;2024-02-16T02:12:06;4.82;;;3.05;;
28762;SDS011;15918;51.270;6.522;2024-02-16T02:14:33;5.00;;;3.03;;
28762;SDS011;15918;51.270;6.522;2024-02-16T02:16:59;4.82;;;3.03;;
28762;SDS011;15918;51.270;6.522;2024-02-16T02:19:25;6.15;;;3.10;;
28762;SDS011;15918;51.270;6.522;2024-02-16T02:21:51;7.18;;;3.10;;
28762;SDS011;15918;51.270;6.522;2024-02-16T02:24:17;7.13;;;3.22;;
28762;SDS011;15918;51.270;6.522;2024-02-16T02:26:42;4.95;;;2.70;;
28762;SDS011;15918;51.270;6.522;2024-02-16T02:29:08;5.97;;;3.45;;
28762;SDS011;15918;51.270;6.522;2024-02-16T02:31:34;5.53;;;3.42;;
28762;SDS011;15918;51.270;6.522;2024-02-16T02:34:00;3.88;;;3.20;;
28762;SDS011;15918;51.270;6.522;2024-02-16T02:36:26;4.78;;;3.00;;
28762;SDS011;15918;51.270;6.522;2024-02-16T02:38:51;4.53;;;2.90;;
28762;SDS011;15918;51.270;6.522;2024-02-16T02:41:17;5.47;;;3.47;;
28762;SDS011;15918;51.270;6.522;2024-02-16T02:43:44;5.53;;;3.63;;
28762;SDS011;15918;51.270;6.522;2024-02-16T02:46:14;5.13;;;3.38;;
28762;SDS011;15918;51.270;6.522;2024-02-16T02:48:41;6.28;;;3.05;;
28762;SDS011;15918;51.270;6.522;2024-02-16T02:51:08;5.25;;;2.90;;
28762;SDS011;15918;51.270;6.522;2024-02-16T02:53:34;5.82;;;3.28;;
28762;SDS011;15918;51.270;6.522;2024-02-16T02:56:00;5.05;;;3.25;;
28762;SDS011;15918;51.270;6.522;2024-02-16T02:58:26;5.30;;;3.60;;
28762;SDS011;15918;51.270;6.522;2024-02-16T03:00:52;3.75;;;3.33;;
28762;SDS011;15918;51.270;6.522;2024-02-16T03:03:17;5.05;;;3.08;;
28762;SDS011;15918;51.270;6.522;2024-02-16T03:05:43;4.68;;;3.08;;
28762;SDS011;15918;51.270;6.522;2024-02-16T03:08:09;4.30;;;3.05;;
28762;SDS011;15918;51.270;6.522;2024-02-16T03:10:36;7.40;;;3.28;;
28762;SDS011;15918;51.270;6.522;2024-02-16T03:13:02;5.28;;;3.40;;
28762;SDS011;15918;51.270;6.522;2024-02-16T03:15:28;5.30;;;3.28;;
28762;SDS011;15918;51.270;6.522;2024-02-16T03:17:54;9.13;;;3.55;;
28762;SDS011;15918;51.270;6.522;2024-02-16T03:20:20;4.03;;;2.92;;
28762;SDS011;15918;51.270;6.522;2024-02-16T03:22:46;5.15;;;3.28;;
28762;SDS011;15918;51.270;6.522;2024-02-16T03:25:12;6.90;;;3.80;;
28762;SDS011;15918;51.270;6.522;2024-02-16T03:27:39;6.20;;;3.20;;
28762;SDS011;15918;51.270;6.522;2024-02-16T03:30:06;4.90;;;3.17;;
28762;SDS011;15918;51.270;6.522;2024-02-16T03:32:33;6.18;;;3.15;;
28762;SDS011;15918;51.270;6.522;2024-02-16T03:34:58;9.00;;;3.20;;
28762;SDS011;15918;51.270;6.522;2024-02-16T03:37:24;5.07;;;3.17;;
28762;SDS011;15918;51.270;6.522;2024-02-16T03:39:50;5.57;;;3.40;;
28762;SDS011;15918;51.270;6.522;2024-02-16T03:42:16;5.90;;;3.33;;
28762;SDS011;15918;51.270;6.522;2024-02-16T03:44:43;4.70;;;3.22;;
28762;SDS011;15918;51.270;6.522;2024-02-16T03:47:09;5.30;;;3.03;;
28762;SDS011;15918;51.270;6.522;2024-02-16T03:49:35;4.82;;;3.05;;
28762;SDS011;15918;51.270;6.522;2024-02-16T03:52:01;5.13;;;3.13;;
28762;SDS011;15918;51.270;6.522;2024-02-16T03:54:27;5.72;;;3.60;;
28762;SDS011;15918;51.270;6.522;2024-02-16T03:56:55;7.07;;;3.28;;
28762;SDS011;15918;51.270;6.522;2024-02-16T03:59:21;6.18;;;3.35;;
28762;SDS011;15918;51.270;6.522;2024-02-16T04:01:48;6.88;;;3.17;;
28762;SDS011;15918;51.270;6.522;2024-02-16T04:04:14;3.88;;;2.85;;
28762;SDS011;15918;51.270;6.522;2024-02-16T04:06:40;4.75;;;3.30;;
28762;SDS011;15918;51.270;6.522;2024-02-16T04:09:05;5.07;;;2.92;;
28762;SDS011;15918;51.270;6.522;2024-02-16T04:11:31;6.13;;;3.30;;
28762;SDS011;15918;51.270;6.522;2024-02-16T04:13:57;6.15;;;3.63;;
28762;SDS011;15918;51.270;6.522;2024-02-16T04:16:23;4.40;;;2.80;;
28762;SDS011;15918;51.270;6.522;2024-02-16T04:18:50;5.07;;;3.25;;
28762;SDS011;15918;51.270;6.522;2024-02-16T04:21:16;5.70;;;3.75;;
28762;SDS011;15918;51.270;6.522;2024-02-16T04:23:42;5.50;;;3.40;;
28762;SDS011;15918;51.270;6.522;2024-02-16T04:26:08;4.70;;;2.92;;
28762;SDS011;15918;51.270;6.522;2024-02-16T04:28:34;6.93;;;3.25;;
28762;SDS011;15918;51.270;6.522;2024-02-16T04:31:00;6.43;;;3.22;;
28762;SDS011;15918;51.270;6.522;2024-02-16T04:33:25;5.95;;;3.45;;
28762;SDS011;15918;51.270;6.522;2024-02-16T04:35:51;3.80;;;2.95;;
28762;SDS011;15918;51.270;6.522;2024-02-16T04:38:17;5.50;;;3.20;;
28762;SDS011;15918;51.270;6.522;2024-02-16T04:40:43;6.30;;;3.28;;
28762;SDS011;15918;51.270;6.522;2024-02-16T04:43:08;5.93;;;3.42;;
28762;SDS011;15918;51.270;6.522;2024-02-16T04:45:34;5.75;;;3.30;;
28762;SDS011;15918;51.270;6.522;2024-02-16T04:48:04;5.13;;;3.15;;
28762;SDS011;15918;51.270;6.522;2024-02-16T04:50:31;5.45;;;3.40;;
28762;SDS011;15918;51.270;6.522;2024-02-16T04:52:57;5.40;;;3.60;;
28762;SDS011;15918;51.270;6.522;2024-02-16T04:55:23;5.15;;;3.30;;
28762;SDS011;15918;51.270;6.522;2024-02-16T04:57:48;3.92;;;3.17;;
28762;SDS011;15918;51.270;6.522;2024-02-16T05:00:14;5.65;;;3.13;;
28762;SDS011;15918;51.270;6.522;2024-02-16T05:02:40;4.15;;;3.30;;
28762;SDS011;15918;51.270;6.522;2024-02-16T05:05:06;9.05;;;3.88;;
28762;SDS011;15918;51.270;6.522;2024-02-16T05:07:32;4.40;;;3.38;;
28762;SDS011;15918;51.270;6.522;2024-02-16T05:09:58;5.32;;;3.25;;
28762;SDS011;15918;51.270;6.522;2024-02-16T05:12:24;6.05;;;3.80;;
28762;SDS011;15918;51.270;6.522;2024-02-16T05:14:50;12.90;;;4.45;;
28762;SDS011;15918;51.270;6.522;2024-02-16T05:17:16;7.00;;;3.25;;
28762;SDS011;15918;51.270;6.522;2024-02-16T05:19:43;4.50;;;3.50;;
28762;SDS011;15918;51.270;6.522;2024-02-16T05:22:08;8.23;;;3.60;;
28762;SDS011;15918;51.270;6.522;2024-02-16T05:24:35;6.28;;;3.50;;
28762;SDS011;15918;51.270;6.522;2024-02-16T05:27:00;6.10;;;3.67;;
28762;SDS011;15918;51.270;6.522;2024-02-16T05:29:26;3.95;;;3.40;;
28762;SDS011;15918;51.270;6.522;2024-02-16T05:31:52;4.50;;;3.55;;
28762;SDS011;15918;51.270;6.522;2024-02-16T05:34:18;7.13;;;3.88;;
28762;SDS011;15918;51.270;6.522;2024-02-16T05:36:44;5.65;;;3.88;;
28762;SDS011;15918;51.270;6.522;2024-02-16T05:39:09;8.02;;;3.60;;
28762;SDS011;15918;51.270;6.522;2024-02-16T05:41:45;7.82;;;4.45;;
28762;SDS011;15918;51.270;6.522;2024-02-16T05:44:12;4.93;;;3.58;;
28762;SDS011;15918;51.270;6.522;2024-02-16T05:46:37;5.07;;;4.20;;
28762;SDS011;15918;51.270;6.522;2024-02-16T05:49:03;7.15;;;3.80;;
28762;SDS011;15918;51.270;6.522;2024-02-16T05:51:37;8.02;;;4.03;;
28762;SDS011;15918;51.270;6.522;2024-02-16T05:54:06;6.72;;;3.95;;
28762;SDS011;15918;51.270;6.522;2024-02-16T05:56:33;5.95;;;4.35;;
28762;SDS011;15918;51.270;6.522;2024-02-16T05:59:02;5.07;;;3.72;;
28762;SDS011;15918;51.270;6.522;2024-02-16T06:01:31;6.00;;;4.00;;
28762;SDS011;15918;51.270;6.522;2024-02-16T06:03:57;7.15;;;3.80;;
28762;SDS011;15918;51.270;6.522;2024-02-16T06:06:22;9.90;;;4.10;;
28762;SDS011;15918;51.270;6.522;2024-02-16T06:08:48;5.90;;;3.70;;
28762;SDS011;15918;51.270;6.522;2024-02-16T06:11:13;6.25;;;3.90;;
28762;SDS011;15918;51.270;6.522;2024-02-16T06:13:40;5.32;;;3.85;;
28762;SDS011;15918;51.270;6.522;2024-02-16T06:16:06;5.63;;;3.80;;
28762;SDS011;15918;51.270;6.522;2024-02-16T06:18:35;5.10;;;3.83;;
28762;SDS011;15918;51.270;6.522;2024-02-16T06:21:01;7.22;;;4.28;;
28762;SDS011;15918;51.270;6.522;2024-02-16T06:23:27;6.90;;;4.35;;
28762;SDS011;15918;51.270;6.522;2024-02-16T06:25:52;8.38;;;3.78;;
28762;SDS011;15918;51.270;6.522;2024-02-16T06:28:18;5.63;;;3.80;;
28762;SDS011;15918;51.270;6.522;2024-02-16T06:30:43;4.82;;;3.85;;
28762;SDS011;15918;51.270;6.522;2024-02-16T06:33:09;5.38;;;3.95;;
28762;SDS011;15918;51.270;6.522;2024-02-16T06:35:35;5.32;;;3.90;;
28762;SDS011;15918;51.270;6.522;2024-02-16T06:38:00;6.00;;;4.03;;
28762;SDS011;15918;51.270;6.522;2024-02-16T06:40:26;5.72;;;3.67;;
28762;SDS011;15918;51.270;6.522;2024-02-16T06:42:52;7.88;;;3.90;;
28762;SDS011;15918;51.270;6.522;2024-02-16T06:45:18;5.70;;;4.13;;
28762;SDS011;15918;51.270;6.522;2024-02-16T06:47:45;6.80;;;4.40;;
28762;SDS011;15918;51.270;6.522;2024-02-16T06:50:10;5.25;;;3.90;;
28762;SDS011;15918;51.270;6.522;2024-02-16T06:52:36;6.93;;;4.00;;
28762;SDS011;15918;51.270;6.522;2024-02-16T06:55:02;5.78;;;4.22;;
28762;SDS011;15918;51.270;6.522;2024-02-16T06:57:28;6.93;;;3.92;;
28762;SDS011;15918;51.270;6.522;2024-02-16T06:59:54;7.80;;;4.47;;
28762;SDS011;15918;51.270;6.522;2024-02-16T07:02:22;9.75;;;4.70;;
28762;SDS011;15918;51.270;6.522;2024-02-16T07:04:48;7.03;;;4.30;;
28762;SDS011;15918;51.270;6.522;2024-02-16T07:07:13;6.00;;;3.85;;
28762;SDS011;15918;51.270;6.522;2024-02-16T07:09:39;5.65;;;4.18;;
28762;SDS011;15918;51.270;6.522;2024-02-16T07:12:05;6.47;;;4.22;;
28762;SDS011;15918;51.270;6.522;2024-02-16T07:14:31;7.45;;;4.43;;
28762;SDS011;15918;51.270;6.522;2024-02-16T07:16:57;7.07;;;4.57;;
28762;SDS011;15918;51.270;6.522;2024-02-16T07:19:23;6.00;;;4.20;;
28762;SDS011;15918;51.270;6.522;2024-02-16T07:21:50;7.70;;;4.18;;
28762;SDS011;15918;51.270;6.522;2024-02-16T07:24:15;6.95;;;4.00;;
28762;SDS011;15918;51.270;6.522;2024-02-16T07:26:41;7.30;;;3.78;;
28762;SDS011;15918;51.270;6.522;2024-02-16T07:29:07;5.07;;;3.53;;
28762;SDS011;15918;51.270;6.522;2024-02-16T07:31:33;4.28;;;3.42;;
28762;SDS011;15918;51.270;6.522;2024-02-16T07:33:59;5.63;;;3.80;;
28762;SDS011;15918;51.270;6.522;2024-02-16T07:36:28;5.50;;;3.63;;
28762;SDS011;15918;51.270;6.522;2024-02-16T07:38:54;5.22;;;4.25;;
28762;SDS011;15918;51.270;6.522;2024-02-16T07:41:20;4.57;;;3.58;;
28762;SDS011;15918;51.270;6.522;2024-02-16T07:43:45;6.00;;;4.47;;
28762;SDS011;15918;51.270;6.522;2024-02-16T07:46:11;4.95;;;3.60;;
28762;SDS011;15918;51.270;6.522;2024-02-16T07:48:37;6.80;;;3.70;;
28762;SDS011;15918;51.270;6.522;2024-02-16T07:51:03;6.13;;;4.50;;
28762;SDS011;15918;51.270;6.522;2024-02-16T07:53:29;7.32;;;4.28;;
28762;SDS011;15918;51.270;6.522;2024-02-16T07:55:56;10.30;;;4.85;;
28762;SDS011;15918;51.270;6.522;2024-02-16T07:58:22;7.95;;;3.88;;
28762;SDS011;15918;51.270;6.522;2024-02-16T08:00:47;9.65;;;4.55;;
28762;SDS011;15918;51.270;6.522;2024-02-16T08:03:13;7.35;;;4.32;;
28762;SDS011;15918;51.270;6.522;2024-02-16T08:05:38;8.70;;;4.28;;
28762;SDS011;15918;51.270;6.522;2024-02-16T08:08:04;4.97;;;3.58;;
28762;SDS011;15918;51.270;6.522;2024-02-16T08:10:29;6.78;;;4.45;;
28762;SDS011;15918;51.270;6.522;2024-02-16T08:12:55;6.65;;;4.30;;
28762;SDS011;15918;51.270;6.522;2024-02-16T08:15:21;13.02;;;5.22;;
28762;SDS011;15918;51.270;6.522;2024-02-16T08:17:50;6.65;;;4.15;;
28762;SDS011;15918;51.270;6.522;2024-02-16T08:20:16;8.85;;;4.35;;
28762;SDS011;15918;51.270;6.522;2024-02-16T08:22:42;7.63;;;4.57;;
28762;SDS011;15918;51.270;6.522;2024-02-16T08:25:07;6.97;;;4.50;;
28762;SDS011;15918;51.270;6.522;2024-02-16T08:27:33;7.03;;;4.40;;
28762;SDS011;15918;51.270;6.522;2024-02-16T08:29:59;6.93;;;4.55;;
28762;SDS011;15918;51.270;6.522;2024-02-16T08:32:27;6.63;;;4.30;;
28762;SDS011;15918;51.270;6.522;2024-02-16T08:34:53;9.38;;;4.47;;
28762;SDS011;15918;51.270;6.522;2024-02-16T08:37:21;5.72;;;4.88;;
28762;SDS011;15918;51.270;6.522;2024-02-16T08:39:46;5.53;;;4.18;;
28762;SDS011;15918;51.270;6.522;2024-02-16T08:42:12;8.05;;;4.43;;
28762;SDS011;15918;51.270;6.522;2024-02-16T08:44:38;6.25;;;3.78;;
28762;SDS011;15918;51.270;6.522;2024-02-16T08:47:05;5.78;;;4.18;;
28762;SDS011;15918;51.270;6.522;2024-02-16T08:49:32;6.18;;;4.35;;
28762;SDS011;15918;51.270;6.522;2024-02-16T08:51:58;7.53;;;4.78;;
28762;SDS011;15918;51.270;6.522;2024-02-16T08:54:23;6.88;;;4.10;;
28762;SDS011;15918;51.270;6.522;2024-02-16T08:56:50;6.20;;;4.10;;
28762;SDS011;15918;51.270;6.522;2024-02-16T08:59:16;5.45;;;3.83;;
28762;SDS011;15918;51.270;6.522;2024-02-16T09:01:42;7.65;;;5.20;;
28762;SDS011;15918;51.270;6.522;2024-02-16T09:04:08;6.20;;;3.95;;
28762;SDS011;15918;51.270;6.522;2024-02-16T09:06:34;6.85;;;4.15;;
28762;SDS011;15918;51.270;6.522;2024-02-16T09:08:59;8.70;;;4.68;;
28762;SDS011;15918;51.270;6.522;2024-02-16T09:11:26;6.85;;;4.25;;
28762;SDS011;15918;51.270;6.522;2024-02-16T09:13:52;7.10;;;4.10;;
28762;SDS011;15918;51.270;6.522;2024-02-16T09:16:18;6.10;;;4.03;;
28762;SDS011;15918;51.270;6.522;2024-02-16T09:18:44;5.28;;;4.05;;
28762;SDS011;15918;51.270;6.522;2024-02-16T09:21:10;6.00;;;3.85;;
28762;SDS011;15918;51.270;6.522;2024-02-16T09:23:36;8.10;;;4.95;;
28762;SDS011;15918;51.270;6.522;2024-02-16T09:26:02;5.70;;;3.90;;
28762;SDS011;15918;51.270;6.522;2024-02-16T09:28:28;5.63;;;3.67;;
28762;SDS011;15918;51.270;6.522;2024-02-16T09:30:55;7.97;;;3.83;;
28762;SDS011;15918;51.270;6.522;2024-02-16T09:33:21;5.55;;;3.72;;
28762;SDS011;15918;51.270;6.522;2024-02-16T09:35:47;5.78;;;3.90;;
28762;SDS011;15918;51.270;6.522;2024-02-16T09:38:13;7.15;;;4.00;;
28762;SDS011;15918;51.270;6.522;2024-02-16T09:40:39;7.30;;;4.35;;
28762;SDS011;15918;51.270;6.522;2024-02-16T09:43:05;5.43;;;3.60;;
28762;SDS011;15918;51.270;6.522;2024-02-16T09:45:30;6.55;;;3.80;;
28762;SDS011;15918;51.270;6.522;2024-02-16T09:47:57;8.90;;;4.32;;
28762;SDS011;15918;51.270;6.522;2024-02-16T09:50:23;9.52;;;4.43;;
28762;SDS011;15918;51.270;6.522;2024-02-16T09:52:51;7.85;;;4.38;;
28762;SDS011;15918;51.270;6.522;2024-02-16T09:55:18;7.28;;;4.50;;
28762;SDS011;15918;51.270;6.522;2024-02-16T09:57:44;10.00;;;5.30;;
28762;SDS011;15918;51.270;6.522;2024-02-16T10:00:10;8.98;;;4.70;;
28762;SDS011;15918;51.270;6.522;2024-02-16T10:02:43;9.43;;;4.88;;
28762;SDS011;15918;51.270;6.522;2024-02-16T10:05:16;8.02;;;4.75;;
28762;SDS011;15918;51.270;6.522;2024-02-16T10:07:44;6.85;;;5.28;;
28762;SDS011;15918;51.270;6.522;2024-02-16T10:10:23;9.55;;;4.35;;
28762;SDS011;15918;51.270;6.522;2024-02-16T10:12:50;8.43;;;4.60;;
28762;SDS011;15918;51.270;6.522;2024-02-16T10:15:25;9.20;;;4.93;;
28762;SDS011;15918;51.270;6.522;2024-02-16T10:18:04;9.15;;;4.53;;
28762;SDS011;15918;51.270;6.522;2024-02-16T10:20:31;8.60;;;5.00;;
28762;SDS011;15918;51.270;6.522;2024-02-16T10:23:10;8.32;;;4.60;;
28762;SDS011;15918;51.270;6.522;2024-02-16T10:25:36;11.60;;;5.20;;
28762;SDS011;15918;51.270;6.522;2024-02-16T10:28:09;15.05;;;5.32;;
28762;SDS011;15918;51.270;6.522;2024-02-16T10:30:37;7.57;;;5.25;;
28762;SDS011;15918;51.270;6.522;2024-02-16T10:33:07;8.32;;;5.15;;
28762;SDS011;15918;51.270;6.522;2024-02-16T10:35:36;8.55;;;5.03;;
28762;SDS011;15918;51.270;6.522;2024-02-16T10:38:03;7.47;;;5.05;;
28762;SDS011;15918;51.270;6.522;2024-02-16T10:40:35;10.18;;;5.07;;
28762;SDS011;15918;51.270;6.522;2024-02-16T10:43:04;10.10;;;6.03;;
28762;SDS011;15918;51.270;6.522;2024-02-16T10:45:39;12.07;;;5.97;;
28762;SDS011;15918;51.270;6.522;2024-02-16T10:48:06;8.05;;;5.68;;
28762;SDS011;15918;51.270;6.522;2024-02-16T10:50:33;12.30;;;6.25;;
28762;SDS011;15918;51.270;6.522;2024-02-16T10:53:02;16.23;;;5.85;;
28762;SDS011;15918;51.270;6.522;2024-02-16T10:55:33;12.43;;;6.72;;
28762;SDS011;15918;51.270;6.522;2024-02-16T10:58:00;12.77;;;6.13;;
28762;SDS011;15918;51.270;6.522;2024-02-16T11:00:25;10.40;;;6.13;;
28762;SDS011;15918;51.270;6.522;2024-02-16T11:02:52;18.35;;;6.55;;
28762;SDS011;15918;51.270;6.522;2024-02-16T11:05:36;10.80;;;5.43;;
28762;SDS011;15918;51.270;6.522;2024-02-16T11:08:11;11.77;;;5.90;;
28762;SDS011;15918;51.270;6.522;2024-02-16T11:10:38;11.30;;;5.53;;
28762;SDS011;15918;51.270;6.522;2024-02-16T11:13:04;9.30;;;5.68;;
28762;SDS011;15918;51.270;6.522;2024-02-16T11:15:30;12.77;;;5.95;;
28762;SDS011;15918;51.270;6.522;2024-02-16T11:17:58;14.98;;;5.90;;
28762;SDS011;15918;51.270;6.522;2024-02-16T11:20:26;13.73;;;6.47;;
28762;SDS011;15918;51.270;6.522;2024-02-16T11:22:52;9.35;;;6.28;;
28762;SDS011;15918;51.270;6.522;2024-02-16T11:25:18;15.23;;;6.57;;
28762;SDS011;15918;51.270;6.522;2024-02-16T11:27:46;10.98;;;6.10;;
28762;SDS011;15918;51.270;6.522;2024-02-16T11:30:12;15.32;;;6.32;;
28762;SDS011;15918;51.270;6.522;2024-02-16T11:32:38;16.20;;;6.28;;
28762;SDS011;15918;51.270;6.522;2024-02-16T11:35:06;14.70;;;6.90;;
28762;SDS011;15918;51.270;6.522;2024-02-16T11:37:33;14.00;;;6.78;;
28762;SDS011;15918;51.270;6.522;2024-02-16T11:39:59;14.60;;;6.93;;
28762;SDS011;15918;51.270;6.522;2024-02-16T11:42:24;13.32;;;6.30;;
28762;SDS011;15918;51.270;6.522;2024-02-16T11:44:51;12.40;;;6.63;;
28762;SDS011;15918;51.270;6.522;2024-02-16T11:47:22;12.77;;;6.55;;
28762;SDS011;15918;51.270;6.522;2024-02-16T11:50:04;9.48;;;6.35;;
28762;SDS011;15918;51.270;6.522;2024-02-16T11:52:32;11.43;;;6.43;;
28762;SDS011;15918;51.270;6.522;2024-02-16T11:54:59;14.95;;;6.72;;
28762;SDS011;15918;51.270;6.522;2024-02-16T11:57:26;11.38;;;7.03;;
28762;SDS011;15918;51.270;6.522;2024-02-16T11:59:52;14.30;;;7.40;;
28762;SDS011;15918;51.270;6.522;2024-02-16T12:02:19;13.10;;;7.30;;
28762;SDS011;15918;51.270;6.522;2024-02-16T12:04:46;15.27;;;7.90;;
28762;SDS011;15918;51.270;6.522;2024-02-16T12:07:12;18.50;;;8.07;;
28762;SDS011;15918;51.270;6.522;2024-02-16T12:09:39;15.68;;;8.10;;
28762;SDS011;15918;51.270;6.522;2024-02-16T12:12:05;15.38;;;8.57;;
28762;SDS011;15918;51.270;6.522;2024-02-16T12:14:31;17.67;;;8.23;;
28762;SDS011;15918;51.270;6.522;2024-02-16T12:16:58;18.35;;;8.30;;
28762;SDS011;15918;51.270;6.522;2024-02-16T12:19:23;13.32;;;7.90;;
28762;SDS011;15918;51.270;6.522;2024-02-16T12:21:50;16.15;;;8.68;;
28762;SDS011;15918;51.270;6.522;2024-02-16T12:24:17;14.35;;;10.55;;
28762;SDS011;15918;51.270;6.522;2024-02-16T12:26:43;20.50;;;12.85;;
28762;SDS011;15918;51.270;6.522;2024-02-16T12:29:09;20.08;;;12.00;;
28762;SDS011;15918;51.270;6.522;2024-02-16T12:31:37;17.15;;;11.38;;
28762;SDS011;15918;51.270;6.522;2024-02-16T12:34:08;16.88;;;10.68;;
28762;SDS011;15918;51.270;6.522;2024-02-16T12:36:34;15.43;;;9.80;;
28762;SDS011;15918;51.270;6.522;2024-02-16T12:39:00;18.05;;;9.82;;
28762;SDS011;15918;51.270;6.522;2024-02-16T12:41:28;19.17;;;10.13;;
28762;SDS011;15918;51.270;6.522;2024-02-16T12:43:55;15.02;;;9.00;;
28762;SDS011;15918;51.270;6.522;2024-02-16T12:46:20;14.20;;;9.27;;
28762;SDS011;15918;51.270;6.522;2024-02-16T12:48:46;13.00;;;8.98;;
28762;SDS011;15918;51.270;6.522;2024-02-16T12:51:11;16.58;;;9.07;;
28762;SDS011;15918;51.270;6.522;2024-02-16T12:53:37;16.48;;;9.00;;
28762;SDS011;15918;51.270;6.522;2024-02-16T12:56:06;16.33;;;9.30;;
28762;SDS011;15918;51.270;6.522;2024-02-16T12:58:33;14.68;;;9.27;;
28762;SDS011;15918;51.270;6.522;2024-02-16T13:00:59;14.35;;;9.68;;
28762;SDS011;15918;51.270;6.522;2024-02-16T13:03:25;18.35;;;10.68;;
28762;SDS011;15918;51.270;6.522;2024-02-16T13:05:51;18.75;;;10.23;;
28762;SDS011;15918;51.270;6.522;2024-02-16T13:08:16;17.38;;;10.48;;
28762;SDS011;15918;51.270;6.522;2024-02-16T13:10:42;16.80;;;9.68;;
28762;SDS011;15918;51.270;6.522;2024-02-16T13:13:08;14.20;;;10.18;;
28762;SDS011;15918;51.270;6.522;2024-02-16T13:15:33;17.50;;;9.65;;
28762;SDS011;15918;51.270;6.522;2024-02-16T13:17:59;17.90;;;9.90;;
28762;SDS011;15918;51.270;6.522;2024-02-16T13:20:24;20.50;;;10.60;;
28762;SDS011;15918;51.270;6.522;2024-02-16T13:22:50;17.65;;;10.50;;
28762;SDS011;15918;51.270;6.522;2024-02-16T13:25:16;17.52;;;10.13;;
28762;SDS011;15918;51.270;6.522;2024-02-16T13:27:42;11.40;;;9.52;;
28762;SDS011;15918;51.270;6.522;2024-02-16T13:30:08;17.20;;;12.02;;
28762;SDS011;15918;51.270;6.522;2024-02-16T13:32:34;20.27;;;11.52;;
28762;SDS011;15918;51.270;6.522;2024-02-16T13:35:01;14.13;;;11.48;;
28762;SDS011;15918;51.270;6.522;2024-02-16T13:37:28;17.65;;;11.38;;
28762;SDS011;15918;51.270;6.522;2024-02-16T13:39:53;17.60;;;11.70;;
28762;SDS011;15918;51.270;6.522;2024-02-16T13:42:19;18.33;;;12.90;;
28762;SDS011;15918;51.270;6.522;2024-02-16T13:44:45;21.95;;;12.57;;
28762;SDS011;15918;51.270;6.522;2024-02-16T13:47:10;16.60;;;12.15;;
28762;SDS011;15918;51.270;6.522;2024-02-16T13:49:36;18.15;;;13.05;;
28762;SDS011;15918;51.270;6.522;2024-02-16T13:52:02;20.67;;;14.27;;
28762;SDS011;15918;51.270;6.522;2024-02-16T13:54:28;23.08;;;15.18;;
28762;SDS011;15918;51.270;6.522;2024-02-16T13:56:53;21.85;;;14.95;;
28762;SDS011;15918;51.270;6.522;2024-02-16T13:59:19;22.80;;;14.38;;
28762;SDS011;15918;51.270;6.522;2024-02-16T14:01:44;18.10;;;14.73;;
28762;SDS011;15918;51.270;6.522;2024-02-16T14:04:11;18.45;;;14.48;;
28762;SDS011;15918;51.270;6.522;2024-02-16T14:06:38;20.00;;;15.18;;
28762;SDS011;15918;51.270;6.522;2024-02-16T14:09:03;22.88;;;15.15;;
28762;SDS011;15918;51.270;6.522;2024-02-16T14:11:38;17.75;;;15.27;;
28762;SDS011;15918;51.270;6.522;2024-02-16T14:14:06;17.38;;;14.23;;
28762;SDS011;15918;51.270;6.522;2024-02-16T14:16:33;21.77;;;14.55;;
28762;SDS011;15918;51.270;6.522;2024-02-16T14:18:59;26.02;;;15.35;;
28762;SDS011;15918;51.270;6.522;2024-02-16T14:21:24;21.35;;;15.95;;
28762;SDS011;15918;51.270;6.522;2024-02-16T14:23:50;15.93;;;14.23;;
28762;SDS011;15918;51.270;6.522;2024-02-16T14:26:16;17.02;;;13.77;;
28762;SDS011;15918;51.270;6.522;2024-02-16T14:28:42;14.82;;;13.23;;
28762;SDS011;15918;51.270;6.522;2024-02-16T14:31:08;15.57;;;12.00;;
28762;SDS011;15918;51.270;6.522;2024-02-16T14:33:33;14.25;;;11.88;;
28762;SDS011;15918;51.270;6.522;2024-02-16T14:35:59;15.50;;;12.23;;
28762;SDS011;15918;51.270;6.522;2024-02-16T14:38:26;15.10;;;12.10;;